sensor_id;sensor_type;location;lat;lon;timestamp;temperature;humidity
61145;DHT22;47026;51.208;3.288;2022-12-07T00:01:20;6.10;99.90
61145;DHT22;47026;51.208;3.288;2022-12-07T00:03:48;6.10;99.90
61145;DHT22;47026;51.208;3.288;2022-12-07T00:06:15;6.00;99.90
61145;DHT22;47026;51.208;3.288;2022-12-07T00:08:42;6.00;99.90
61145;DHT22;47026;51.208;3.288;2022-12-07T00:11:09;5.70;99.90
61145;DHT22;47026;51.208;3.288;2022-12-07T00:13:35;5.70;99.90
61145;DHT22;47026;51.208;3.288;2022-12-07T00:16:02;5.70;99.90
61145;DHT22;47026;51.208;3.288;2022-12-07T00:18:29;5.70;99.90
61145;DHT22;47026;51.208;3.288;2022-12-07T00:21:00;5.80;99.90
61145;DHT22;47026;51.208;3.288;2022-12-07T00:23:26;5.90;99.90
61145;DHT22;47026;51.208;3.288;2022-12-07T00:25:52;5.90;99.90
61145;DHT22;47026;51.208;3.288;2022-12-07T00:28:18;6.00;99.90
61145;DHT22;47026;51.208;3.288;2022-12-07T00:30:44;6.20;99.90
61145;DHT22;47026;51.208;3.288;2022-12-07T00:33:09;6.10;99.90
61145;DHT22;47026;51.208;3.288;2022-12-07T00:35:35;6.10;99.90
61145;DHT22;47026;51.208;3.288;2022-12-07T00:38:01;5.90;99.90
61145;DHT22;47026;51.208;3.288;2022-12-07T00:40:27;5.50;99.90
61145;DHT22;47026;51.208;3.288;2022-12-07T00:42:53;5.40;99.90
61145;DHT22;47026;51.208;3.288;2022-12-07T00:45:19;5.60;99.90
61145;DHT22;47026;51.208;3.288;2022-12-07T00:47:45;5.80;99.90
61145;DHT22;47026;51.208;3.288;2022-12-07T00:50:10;6.00;99.90
61145;DHT22;47026;51.208;3.288;2022-12-07T00:52:36;6.20;99.90
61145;DHT22;47026;51.208;3.288;2022-12-07T00:55:02;6.10;99.90
61145;DHT22;47026;51.208;3.288;2022-12-07T00:57:29;6.30;99.90
61145;DHT22;47026;51.208;3.288;2022-12-07T00:59:55;6.40;99.90
61145;DHT22;47026;51.208;3.288;2022-12-07T01:02:23;6.40;99.90
61145;DHT22;47026;51.208;3.288;2022-12-07T01:04:49;6.60;99.90
61145;DHT22;47026;51.208;3.288;2022-12-07T01:07:15;6.70;99.90
61145;DHT22;47026;51.208;3.288;2022-12-07T01:09:41;6.60;99.90
61145;DHT22;47026;51.208;3.288;2022-12-07T01:12:06;6.60;99.90
61145;DHT22;47026;51.208;3.288;2022-12-07T01:14:32;6.50;99.90
61145;DHT22;47026;51.208;3.288;2022-12-07T01:16:58;6.40;99.90
61145;DHT22;47026;51.208;3.288;2022-12-07T01:19:24;6.50;99.90
61145;DHT22;47026;51.208;3.288;2022-12-07T01:21:50;6.50;99.90
61145;DHT22;47026;51.208;3.288;2022-12-07T01:24:16;6.50;99.90
61145;DHT22;47026;51.208;3.288;2022-12-07T01:26:42;6.50;99.90
61145;DHT22;47026;51.208;3.288;2022-12-07T01:29:07;6.60;99.90
61145;DHT22;47026;51.208;3.288;2022-12-07T01:31:33;6.50;99.90
61145;DHT22;47026;51.208;3.288;2022-12-07T01:34:00;6.50;99.90
61145;DHT22;47026;51.208;3.288;2022-12-07T01:36:27;6.50;99.90
61145;DHT22;47026;51.208;3.288;2022-12-07T01:38:59;6.40;99.90
61145;DHT22;47026;51.208;3.288;2022-12-07T01:41:28;6.30;99.90
61145;DHT22;47026;51.208;3.288;2022-12-07T01:46:40;6.20;99.90
61145;DHT22;47026;51.208;3.288;2022-12-07T01:49:10;6.20;99.90
61145;DHT22;47026;51.208;3.288;2022-12-07T01:51:39;6.10;99.90
61145;DHT22;47026;51.208;3.288;2022-12-07T01:54:07;5.90;99.90
61145;DHT22;47026;51.208;3.288;2022-12-07T01:56:34;5.90;99.90
61145;DHT22;47026;51.208;3.288;2022-12-07T01:59:00;5.70;99.90
61145;DHT22;47026;51.208;3.288;2022-12-07T02:01:26;5.70;99.90
61145;DHT22;47026;51.208;3.288;2022-12-07T02:03:52;6.00;99.90
61145;DHT22;47026;51.208;3.288;2022-12-07T02:06:22;5.90;99.90
61145;DHT22;47026;51.208;3.288;2022-12-07T02:08:50;5.90;99.90
61145;DHT22;47026;51.208;3.288;2022-12-07T02:11:16;5.90;99.90
61145;DHT22;47026;51.208;3.288;2022-12-07T02:13:43;5.80;99.90
61145;DHT22;47026;51.208;3.288;2022-12-07T02:29:22;6.20;99.90
61145;DHT22;47026;51.208;3.288;2022-12-07T02:32:08;6.20;99.90
61145;DHT22;47026;51.208;3.288;2022-12-07T02:40:01;6.30;99.90
61145;DHT22;47026;51.208;3.288;2022-12-07T02:42:38;6.10;99.90
61145;DHT22;47026;51.208;3.288;2022-12-07T02:45:07;6.00;99.90
61145;DHT22;47026;51.208;3.288;2022-12-07T02:47:34;6.00;99.90
61145;DHT22;47026;51.208;3.288;2022-12-07T02:50:04;6.10;99.90
61145;DHT22;47026;51.208;3.288;2022-12-07T02:52:30;6.20;99.90
61145;DHT22;47026;51.208;3.288;2022-12-07T02:54:56;6.30;99.90
61145;DHT22;47026;51.208;3.288;2022-12-07T03:00:02;6.50;99.90
61145;DHT22;47026;51.208;3.288;2022-12-07T03:05:37;6.50;99.90
61145;DHT22;47026;51.208;3.288;2022-12-07T03:08:13;6.40;99.90
61145;DHT22;47026;51.208;3.288;2022-12-07T03:15:54;6.60;99.90
61145;DHT22;47026;51.208;3.288;2022-12-07T03:18:25;6.50;99.90
61145;DHT22;47026;51.208;3.288;2022-12-07T03:20:53;6.30;99.90
61145;DHT22;47026;51.208;3.288;2022-12-07T03:23:21;6.20;99.90
61145;DHT22;47026;51.208;3.288;2022-12-07T03:25:50;6.10;99.90
61145;DHT22;47026;51.208;3.288;2022-12-07T03:28:22;6.10;99.90
61145;DHT22;47026;51.208;3.288;2022-12-07T03:33:39;6.20;99.90
61145;DHT22;47026;51.208;3.288;2022-12-07T03:36:21;6.20;99.90
61145;DHT22;47026;51.208;3.288;2022-12-07T03:38:58;6.10;99.90
61145;DHT22;47026;51.208;3.288;2022-12-07T03:41:30;6.10;99.90
61145;DHT22;47026;51.208;3.288;2022-12-07T03:43:57;6.20;99.90
61145;DHT22;47026;51.208;3.288;2022-12-07T03:46:27;6.20;99.90
61145;DHT22;47026;51.208;3.288;2022-12-07T03:55:06;6.00;99.90
61145;DHT22;47026;51.208;3.288;2022-12-07T03:57:35;6.00;99.90
61145;DHT22;47026;51.208;3.288;2022-12-07T04:00:06;6.00;99.90
61145;DHT22;47026;51.208;3.288;2022-12-07T04:02:32;5.90;99.90
61145;DHT22;47026;51.208;3.288;2022-12-07T04:04:58;5.90;99.90
61145;DHT22;47026;51.208;3.288;2022-12-07T04:07:25;6.00;99.90
61145;DHT22;47026;51.208;3.288;2022-12-07T04:09:51;6.00;99.90
61145;DHT22;47026;51.208;3.288;2022-12-07T04:12:16;6.20;99.90
61145;DHT22;47026;51.208;3.288;2022-12-07T04:14:42;6.30;99.90
61145;DHT22;47026;51.208;3.288;2022-12-07T04:17:09;6.30;99.90
61145;DHT22;47026;51.208;3.288;2022-12-07T04:19:34;6.30;99.90
61145;DHT22;47026;51.208;3.288;2022-12-07T04:22:02;6.20;99.90
61145;DHT22;47026;51.208;3.288;2022-12-07T04:24:28;6.20;99.90
61145;DHT22;47026;51.208;3.288;2022-12-07T04:26:54;6.40;99.90
61145;DHT22;47026;51.208;3.288;2022-12-07T04:29:21;6.30;99.90
61145;DHT22;47026;51.208;3.288;2022-12-07T04:31:47;6.20;99.90
61145;DHT22;47026;51.208;3.288;2022-12-07T04:34:15;6.20;99.90
61145;DHT22;47026;51.208;3.288;2022-12-07T04:36:42;6.10;99.90
61145;DHT22;47026;51.208;3.288;2022-12-07T04:39:20;6.10;99.90
61145;DHT22;47026;51.208;3.288;2022-12-07T04:41:46;5.90;99.90
61145;DHT22;47026;51.208;3.288;2022-12-07T04:44:13;5.70;99.90
61145;DHT22;47026;51.208;3.288;2022-12-07T04:46:40;5.70;99.90
61145;DHT22;47026;51.208;3.288;2022-12-07T04:49:06;5.90;99.90
61145;DHT22;47026;51.208;3.288;2022-12-07T04:51:32;6.10;99.90
61145;DHT22;47026;51.208;3.288;2022-12-07T04:53:58;6.20;99.90
61145;DHT22;47026;51.208;3.288;2022-12-07T04:56:25;6.30;99.90
61145;DHT22;47026;51.208;3.288;2022-12-07T04:58:53;6.40;99.90
61145;DHT22;47026;51.208;3.288;2022-12-07T05:01:20;6.40;99.90
61145;DHT22;47026;51.208;3.288;2022-12-07T05:03:46;6.20;99.90
61145;DHT22;47026;51.208;3.288;2022-12-07T05:06:12;6.20;99.90
61145;DHT22;47026;51.208;3.288;2022-12-07T05:08:39;6.20;99.90
61145;DHT22;47026;51.208;3.288;2022-12-07T05:11:05;6.20;99.90
61145;DHT22;47026;51.208;3.288;2022-12-07T05:13:32;6.30;99.90
61145;DHT22;47026;51.208;3.288;2022-12-07T05:15:59;6.10;99.90
61145;DHT22;47026;51.208;3.288;2022-12-07T05:18:24;6.10;99.90
61145;DHT22;47026;51.208;3.288;2022-12-07T05:20:50;6.10;99.90
61145;DHT22;47026;51.208;3.288;2022-12-07T05:23:17;6.30;99.90
61145;DHT22;47026;51.208;3.288;2022-12-07T05:25:43;6.40;99.90
61145;DHT22;47026;51.208;3.288;2022-12-07T05:28:09;6.40;99.90
61145;DHT22;47026;51.208;3.288;2022-12-07T05:30:35;6.30;99.90
61145;DHT22;47026;51.208;3.288;2022-12-07T05:33:01;6.20;99.90
61145;DHT22;47026;51.208;3.288;2022-12-07T05:35:28;6.30;99.90
61145;DHT22;47026;51.208;3.288;2022-12-07T05:37:55;6.20;99.90
61145;DHT22;47026;51.208;3.288;2022-12-07T05:40:21;6.10;99.90
61145;DHT22;47026;51.208;3.288;2022-12-07T05:42:47;6.00;99.90
61145;DHT22;47026;51.208;3.288;2022-12-07T05:45:13;6.00;99.90
61145;DHT22;47026;51.208;3.288;2022-12-07T05:47:38;5.90;99.90
61145;DHT22;47026;51.208;3.288;2022-12-07T05:50:05;6.10;99.90
61145;DHT22;47026;51.208;3.288;2022-12-07T05:52:32;6.10;99.90
61145;DHT22;47026;51.208;3.288;2022-12-07T05:54:58;6.10;99.90
61145;DHT22;47026;51.208;3.288;2022-12-07T05:57:24;6.10;99.90
61145;DHT22;47026;51.208;3.288;2022-12-07T05:59:50;6.10;99.90
61145;DHT22;47026;51.208;3.288;2022-12-07T06:02:16;5.90;99.90
61145;DHT22;47026;51.208;3.288;2022-12-07T06:04:45;5.80;99.90
61145;DHT22;47026;51.208;3.288;2022-12-07T06:07:12;5.80;99.90
61145;DHT22;47026;51.208;3.288;2022-12-07T06:09:39;5.70;99.90
61145;DHT22;47026;51.208;3.288;2022-12-07T06:12:05;5.70;99.90
61145;DHT22;47026;51.208;3.288;2022-12-07T06:14:50;5.80;99.90
61145;DHT22;47026;51.208;3.288;2022-12-07T06:17:16;6.10;99.90
61145;DHT22;47026;51.208;3.288;2022-12-07T06:19:42;6.20;99.90
61145;DHT22;47026;51.208;3.288;2022-12-07T06:22:09;6.10;99.90
61145;DHT22;47026;51.208;3.288;2022-12-07T06:24:35;6.20;99.90
61145;DHT22;47026;51.208;3.288;2022-12-07T06:27:01;5.90;99.90
61145;DHT22;47026;51.208;3.288;2022-12-07T06:29:27;5.50;99.90
61145;DHT22;47026;51.208;3.288;2022-12-07T06:31:53;5.40;99.90
61145;DHT22;47026;51.208;3.288;2022-12-07T06:34:20;5.50;99.90
61145;DHT22;47026;51.208;3.288;2022-12-07T06:36:48;5.70;99.90
61145;DHT22;47026;51.208;3.288;2022-12-07T06:39:18;5.80;99.90
61145;DHT22;47026;51.208;3.288;2022-12-07T06:41:44;5.80;99.90
61145;DHT22;47026;51.208;3.288;2022-12-07T06:44:10;5.80;99.90
61145;DHT22;47026;51.208;3.288;2022-12-07T06:46:36;5.80;99.90
61145;DHT22;47026;51.208;3.288;2022-12-07T06:49:04;5.80;99.90
61145;DHT22;47026;51.208;3.288;2022-12-07T06:51:31;5.80;99.90
61145;DHT22;47026;51.208;3.288;2022-12-07T06:53:57;5.90;99.90
61145;DHT22;47026;51.208;3.288;2022-12-07T06:56:23;5.90;99.90
61145;DHT22;47026;51.208;3.288;2022-12-07T06:58:49;6.00;99.90
61145;DHT22;47026;51.208;3.288;2022-12-07T07:01:17;5.90;99.90
61145;DHT22;47026;51.208;3.288;2022-12-07T07:03:45;6.10;99.90
61145;DHT22;47026;51.208;3.288;2022-12-07T07:06:11;6.00;99.90
61145;DHT22;47026;51.208;3.288;2022-12-07T07:08:38;6.10;99.90
61145;DHT22;47026;51.208;3.288;2022-12-07T07:11:05;6.00;99.90
61145;DHT22;47026;51.208;3.288;2022-12-07T07:13:32;6.00;99.90
61145;DHT22;47026;51.208;3.288;2022-12-07T07:15:58;6.10;99.90
61145;DHT22;47026;51.208;3.288;2022-12-07T07:18:24;6.00;99.90
61145;DHT22;47026;51.208;3.288;2022-12-07T07:20:51;6.00;99.90
61145;DHT22;47026;51.208;3.288;2022-12-07T07:23:18;6.00;99.90
61145;DHT22;47026;51.208;3.288;2022-12-07T07:25:44;6.00;99.90
61145;DHT22;47026;51.208;3.288;2022-12-07T07:28:10;6.10;99.90
61145;DHT22;47026;51.208;3.288;2022-12-07T07:30:36;6.10;99.90
61145;DHT22;47026;51.208;3.288;2022-12-07T07:33:03;6.10;99.90
61145;DHT22;47026;51.208;3.288;2022-12-07T07:35:30;6.20;99.90
61145;DHT22;47026;51.208;3.288;2022-12-07T07:37:56;6.30;99.90
61145;DHT22;47026;51.208;3.288;2022-12-07T07:40:23;6.40;99.90
61145;DHT22;47026;51.208;3.288;2022-12-07T07:42:50;6.50;99.90
61145;DHT22;47026;51.208;3.288;2022-12-07T07:45:17;6.50;99.90
61145;DHT22;47026;51.208;3.288;2022-12-07T07:47:43;6.60;99.90
61145;DHT22;47026;51.208;3.288;2022-12-07T07:50:09;6.60;99.90
61145;DHT22;47026;51.208;3.288;2022-12-07T07:52:35;6.50;99.90
61145;DHT22;47026;51.208;3.288;2022-12-07T07:55:01;6.50;99.90
61145;DHT22;47026;51.208;3.288;2022-12-07T07:57:27;6.50;99.90
61145;DHT22;47026;51.208;3.288;2022-12-07T07:59:52;6.50;99.90
61145;DHT22;47026;51.208;3.288;2022-12-07T08:02:20;6.50;99.90
61145;DHT22;47026;51.208;3.288;2022-12-07T08:04:46;6.50;99.90
61145;DHT22;47026;51.208;3.288;2022-12-07T08:07:12;6.40;99.90
61145;DHT22;47026;51.208;3.288;2022-12-07T08:09:38;6.30;99.90
61145;DHT22;47026;51.208;3.288;2022-12-07T08:12:05;6.40;99.90
61145;DHT22;47026;51.208;3.288;2022-12-07T08:14:32;6.50;99.90
61145;DHT22;47026;51.208;3.288;2022-12-07T08:16:58;6.50;99.90
61145;DHT22;47026;51.208;3.288;2022-12-07T08:19:24;6.80;99.90
61145;DHT22;47026;51.208;3.288;2022-12-07T08:21:50;6.90;99.90
61145;DHT22;47026;51.208;3.288;2022-12-07T08:24:16;7.10;99.90
61145;DHT22;47026;51.208;3.288;2022-12-07T08:26:42;7.00;99.90
61145;DHT22;47026;51.208;3.288;2022-12-07T08:29:09;7.10;99.90
61145;DHT22;47026;51.208;3.288;2022-12-07T08:31:35;7.00;99.90
61145;DHT22;47026;51.208;3.288;2022-12-07T08:34:01;7.20;99.90
61145;DHT22;47026;51.208;3.288;2022-12-07T08:36:26;7.00;99.90
61145;DHT22;47026;51.208;3.288;2022-12-07T08:38:53;6.80;99.90
61145;DHT22;47026;51.208;3.288;2022-12-07T08:41:18;6.90;99.90
61145;DHT22;47026;51.208;3.288;2022-12-07T08:43:44;7.30;99.90
61145;DHT22;47026;51.208;3.288;2022-12-07T08:49:10;8.40;99.90
61145;DHT22;47026;51.208;3.288;2022-12-07T08:51:38;9.80;99.90
61145;DHT22;47026;51.208;3.288;2022-12-07T08:54:07;10.60;99.90
61145;DHT22;47026;51.208;3.288;2022-12-07T08:56:35;10.60;99.90
61145;DHT22;47026;51.208;3.288;2022-12-07T08:59:01;10.30;99.90
61145;DHT22;47026;51.208;3.288;2022-12-07T09:01:28;9.80;99.90
61145;DHT22;47026;51.208;3.288;2022-12-07T09:03:54;9.40;99.90
61145;DHT22;47026;51.208;3.288;2022-12-07T09:06:19;9.10;99.90
61145;DHT22;47026;51.208;3.288;2022-12-07T09:08:48;8.90;99.90
61145;DHT22;47026;51.208;3.288;2022-12-07T09:11:15;8.70;99.90
61145;DHT22;47026;51.208;3.288;2022-12-07T09:13:41;8.60;99.90
61145;DHT22;47026;51.208;3.288;2022-12-07T09:16:07;9.60;99.90
61145;DHT22;47026;51.208;3.288;2022-12-07T09:18:33;10.70;99.90
61145;DHT22;47026;51.208;3.288;2022-12-07T09:20:58;11.60;99.90
61145;DHT22;47026;51.208;3.288;2022-12-07T09:23:25;12.40;99.90
61145;DHT22;47026;51.208;3.288;2022-12-07T09:25:51;12.20;99.90
61145;DHT22;47026;51.208;3.288;2022-12-07T09:28:17;11.80;99.90
61145;DHT22;47026;51.208;3.288;2022-12-07T09:30:47;11.40;99.90
61145;DHT22;47026;51.208;3.288;2022-12-07T09:33:13;10.90;99.90
61145;DHT22;47026;51.208;3.288;2022-12-07T09:35:47;10.20;99.90
61145;DHT22;47026;51.208;3.288;2022-12-07T09:38:14;9.30;99.90
61145;DHT22;47026;51.208;3.288;2022-12-07T09:40:40;9.00;99.90
61145;DHT22;47026;51.208;3.288;2022-12-07T09:43:23;8.70;99.90
61145;DHT22;47026;51.208;3.288;2022-12-07T09:45:54;8.90;99.90
61145;DHT22;47026;51.208;3.288;2022-12-07T09:48:25;8.90;99.90
61145;DHT22;47026;51.208;3.288;2022-12-07T09:50:54;8.90;99.90
61145;DHT22;47026;51.208;3.288;2022-12-07T09:53:30;8.90;99.90
61145;DHT22;47026;51.208;3.288;2022-12-07T09:55:59;8.90;99.90
61145;DHT22;47026;51.208;3.288;2022-12-07T09:58:27;8.90;99.90
61145;DHT22;47026;51.208;3.288;2022-12-07T10:01:11;8.80;99.90
61145;DHT22;47026;51.208;3.288;2022-12-07T10:03:39;9.00;99.90
61145;DHT22;47026;51.208;3.288;2022-12-07T10:06:06;8.70;99.90
61145;DHT22;47026;51.208;3.288;2022-12-07T10:08:32;8.30;99.90
61145;DHT22;47026;51.208;3.288;2022-12-07T10:11:01;8.40;99.90
61145;DHT22;47026;51.208;3.288;2022-12-07T10:16:05;8.90;99.90
61145;DHT22;47026;51.208;3.288;2022-12-07T10:18:34;9.20;99.90
61145;DHT22;47026;51.208;3.288;2022-12-07T10:23:33;9.40;99.90
61145;DHT22;47026;51.208;3.288;2022-12-07T10:26:03;9.40;99.90
61145;DHT22;47026;51.208;3.288;2022-12-07T10:28:44;9.50;99.90
61145;DHT22;47026;51.208;3.288;2022-12-07T10:31:17;9.60;99.90
61145;DHT22;47026;51.208;3.288;2022-12-07T10:33:59;9.40;99.90
61145;DHT22;47026;51.208;3.288;2022-12-07T10:36:37;9.90;99.90
61145;DHT22;47026;51.208;3.288;2022-12-07T10:39:18;10.10;99.90
61145;DHT22;47026;51.208;3.288;2022-12-07T10:41:55;10.20;99.90
61145;DHT22;47026;51.208;3.288;2022-12-07T10:44:27;11.20;99.90
61145;DHT22;47026;51.208;3.288;2022-12-07T10:55:22;12.10;99.90
61145;DHT22;47026;51.208;3.288;2022-12-07T10:58:06;11.30;99.90
61145;DHT22;47026;51.208;3.288;2022-12-07T11:00:43;11.10;99.90
61145;DHT22;47026;51.208;3.288;2022-12-07T11:03:41;10.80;99.90
61145;DHT22;47026;51.208;3.288;2022-12-07T11:06:33;11.00;99.90
61145;DHT22;47026;51.208;3.288;2022-12-07T11:12:14;10.50;99.90
61145;DHT22;47026;51.208;3.288;2022-12-07T11:17:53;10.30;99.90
61145;DHT22;47026;51.208;3.288;2022-12-07T11:26:00;9.10;99.90
61145;DHT22;47026;51.208;3.288;2022-12-07T11:31:08;9.10;99.90
61145;DHT22;47026;51.208;3.288;2022-12-07T11:33:51;8.90;99.90
61145;DHT22;47026;51.208;3.288;2022-12-07T11:41:46;9.00;99.90
61145;DHT22;47026;51.208;3.288;2022-12-07T11:46:56;9.10;99.90
61145;DHT22;47026;51.208;3.288;2022-12-07T11:49:45;9.50;99.90
61145;DHT22;47026;51.208;3.288;2022-12-07T11:55:05;9.30;99.90
61145;DHT22;47026;51.208;3.288;2022-12-07T11:57:44;9.60;99.90
61145;DHT22;47026;51.208;3.288;2022-12-07T12:00:16;10.30;99.90
61145;DHT22;47026;51.208;3.288;2022-12-07T12:02:52;10.70;99.90
61145;DHT22;47026;51.208;3.288;2022-12-07T12:05:22;11.00;99.90
61145;DHT22;47026;51.208;3.288;2022-12-07T12:08:22;11.10;99.90
61145;DHT22;47026;51.208;3.288;2022-12-07T12:10:59;11.30;99.90
61145;DHT22;47026;51.208;3.288;2022-12-07T12:13:43;11.70;99.90
61145;DHT22;47026;51.208;3.288;2022-12-07T12:21:26;11.70;99.90
61145;DHT22;47026;51.208;3.288;2022-12-07T12:24:04;11.40;99.90
61145;DHT22;47026;51.208;3.288;2022-12-07T12:26:32;11.10;99.90
61145;DHT22;47026;51.208;3.288;2022-12-07T12:29:03;10.80;99.90
61145;DHT22;47026;51.208;3.288;2022-12-07T12:31:38;10.80;99.90
61145;DHT22;47026;51.208;3.288;2022-12-07T12:34:31;10.80;99.90
61145;DHT22;47026;51.208;3.288;2022-12-07T12:36:57;10.50;99.90
61145;DHT22;47026;51.208;3.288;2022-12-07T12:39:23;10.20;99.90
61145;DHT22;47026;51.208;3.288;2022-12-07T12:41:56;9.90;99.90
61145;DHT22;47026;51.208;3.288;2022-12-07T12:51:56;9.50;99.90
61145;DHT22;47026;51.208;3.288;2022-12-07T12:54:27;9.50;99.90
61145;DHT22;47026;51.208;3.288;2022-12-07T12:57:13;9.80;99.90
61145;DHT22;47026;51.208;3.288;2022-12-07T12:59:57;10.10;99.90
61145;DHT22;47026;51.208;3.288;2022-12-07T13:02:36;9.80;99.90
61145;DHT22;47026;51.208;3.288;2022-12-07T13:05:26;9.60;99.90
61145;DHT22;47026;51.208;3.288;2022-12-07T13:08:18;9.70;99.90
61145;DHT22;47026;51.208;3.288;2022-12-07T13:10:47;9.30;99.90
61145;DHT22;47026;51.208;3.288;2022-12-07T13:23:31;8.80;99.90
61145;DHT22;47026;51.208;3.288;2022-12-07T13:26:18;8.40;99.90
61145;DHT22;47026;51.208;3.288;2022-12-07T13:28:58;8.10;99.90
61145;DHT22;47026;51.208;3.288;2022-12-07T13:31:39;8.10;99.90
61145;DHT22;47026;51.208;3.288;2022-12-07T13:36:54;8.50;99.90
61145;DHT22;47026;51.208;3.288;2022-12-07T13:39:25;8.70;99.90
61145;DHT22;47026;51.208;3.288;2022-12-07T13:41:53;8.90;99.90
61145;DHT22;47026;51.208;3.288;2022-12-07T13:44:19;8.60;99.90
61145;DHT22;47026;51.208;3.288;2022-12-07T13:46:59;8.60;99.90
61145;DHT22;47026;51.208;3.288;2022-12-07T13:49:29;8.70;99.90
61145;DHT22;47026;51.208;3.288;2022-12-07T13:52:13;8.70;99.90
61145;DHT22;47026;51.208;3.288;2022-12-07T13:54:55;8.70;99.90
61145;DHT22;47026;51.208;3.288;2022-12-07T13:57:22;9.20;99.90
61145;DHT22;47026;51.208;3.288;2022-12-07T13:59:49;9.20;99.90
61145;DHT22;47026;51.208;3.288;2022-12-07T14:04:49;8.70;99.90
61145;DHT22;47026;51.208;3.288;2022-12-07T14:07:25;8.70;99.90
61145;DHT22;47026;51.208;3.288;2022-12-07T14:10:06;8.50;99.90
61145;DHT22;47026;51.208;3.288;2022-12-07T14:12:36;8.30;99.90
61145;DHT22;47026;51.208;3.288;2022-12-07T14:15:03;8.10;99.90
61145;DHT22;47026;51.208;3.288;2022-12-07T14:17:29;7.90;99.90
61145;DHT22;47026;51.208;3.288;2022-12-07T14:20:02;7.80;99.90
61145;DHT22;47026;51.208;3.288;2022-12-07T14:22:32;7.90;99.90
61145;DHT22;47026;51.208;3.288;2022-12-07T14:25:14;8.00;99.90
61145;DHT22;47026;51.208;3.288;2022-12-07T14:27:52;8.00;99.90
61145;DHT22;47026;51.208;3.288;2022-12-07T14:30:21;8.20;99.90
61145;DHT22;47026;51.208;3.288;2022-12-07T14:32:55;8.20;99.90
61145;DHT22;47026;51.208;3.288;2022-12-07T14:35:22;8.30;99.90
61145;DHT22;47026;51.208;3.288;2022-12-07T14:37:49;8.30;99.90
61145;DHT22;47026;51.208;3.288;2022-12-07T14:40:19;8.10;99.90
61145;DHT22;47026;51.208;3.288;2022-12-07T14:42:46;8.20;99.90
61145;DHT22;47026;51.208;3.288;2022-12-07T14:45:16;8.10;99.90
61145;DHT22;47026;51.208;3.288;2022-12-07T14:47:43;8.20;99.90
61145;DHT22;47026;51.208;3.288;2022-12-07T14:50:15;8.30;99.90
61145;DHT22;47026;51.208;3.288;2022-12-07T14:52:43;8.30;99.90
61145;DHT22;47026;51.208;3.288;2022-12-07T14:55:32;8.10;99.90
61145;DHT22;47026;51.208;3.288;2022-12-07T14:57:58;8.10;99.90
61145;DHT22;47026;51.208;3.288;2022-12-07T15:00:26;7.90;99.90
61145;DHT22;47026;51.208;3.288;2022-12-07T15:02:52;7.90;99.90
61145;DHT22;47026;51.208;3.288;2022-12-07T15:05:18;7.90;99.90
61145;DHT22;47026;51.208;3.288;2022-12-07T15:07:45;7.90;99.90
61145;DHT22;47026;51.208;3.288;2022-12-07T15:10:22;7.90;99.90
61145;DHT22;47026;51.208;3.288;2022-12-07T15:12:48;8.00;99.90
61145;DHT22;47026;51.208;3.288;2022-12-07T15:15:14;8.00;99.90
61145;DHT22;47026;51.208;3.288;2022-12-07T15:17:40;7.70;99.90
61145;DHT22;47026;51.208;3.288;2022-12-07T15:20:11;7.60;99.90
61145;DHT22;47026;51.208;3.288;2022-12-07T15:22:37;7.50;99.90
61145;DHT22;47026;51.208;3.288;2022-12-07T15:25:03;7.50;99.90
61145;DHT22;47026;51.208;3.288;2022-12-07T15:27:31;7.60;99.90
61145;DHT22;47026;51.208;3.288;2022-12-07T15:29:57;7.60;99.90
61145;DHT22;47026;51.208;3.288;2022-12-07T15:32:23;7.60;99.90
61145;DHT22;47026;51.208;3.288;2022-12-07T15:34:48;7.60;99.90
61145;DHT22;47026;51.208;3.288;2022-12-07T15:37:16;7.60;99.90
61145;DHT22;47026;51.208;3.288;2022-12-07T15:39:42;7.60;99.90
61145;DHT22;47026;51.208;3.288;2022-12-07T15:42:07;7.50;99.90
61145;DHT22;47026;51.208;3.288;2022-12-07T15:44:33;7.50;99.90
61145;DHT22;47026;51.208;3.288;2022-12-07T15:47:17;7.60;99.90
61145;DHT22;47026;51.208;3.288;2022-12-07T15:49:43;7.40;99.90
61145;DHT22;47026;51.208;3.288;2022-12-07T15:52:09;7.40;99.90
61145;DHT22;47026;51.208;3.288;2022-12-07T15:54:34;7.40;99.90
61145;DHT22;47026;51.208;3.288;2022-12-07T15:57:00;7.30;99.90
61145;DHT22;47026;51.208;3.288;2022-12-07T15:59:27;7.40;99.90
61145;DHT22;47026;51.208;3.288;2022-12-07T16:01:54;7.40;99.90
61145;DHT22;47026;51.208;3.288;2022-12-07T16:04:20;7.40;99.90
61145;DHT22;47026;51.208;3.288;2022-12-07T16:06:46;7.50;99.90
61145;DHT22;47026;51.208;3.288;2022-12-07T16:09:12;7.40;99.90
61145;DHT22;47026;51.208;3.288;2022-12-07T16:11:37;7.40;99.90
61145;DHT22;47026;51.208;3.288;2022-12-07T16:14:03;7.40;99.90
61145;DHT22;47026;51.208;3.288;2022-12-07T16:16:29;7.40;99.90
61145;DHT22;47026;51.208;3.288;2022-12-07T16:18:55;7.40;99.90
61145;DHT22;47026;51.208;3.288;2022-12-07T16:21:20;7.40;99.90
61145;DHT22;47026;51.208;3.288;2022-12-07T16:23:46;7.30;99.90
61145;DHT22;47026;51.208;3.288;2022-12-07T16:26:17;7.40;99.90
61145;DHT22;47026;51.208;3.288;2022-12-07T16:28:44;7.20;99.90
61145;DHT22;47026;51.208;3.288;2022-12-07T16:31:12;7.00;99.90
61145;DHT22;47026;51.208;3.288;2022-12-07T16:33:39;6.90;99.90
61145;DHT22;47026;51.208;3.288;2022-12-07T16:36:06;6.80;99.90
61145;DHT22;47026;51.208;3.288;2022-12-07T16:38:33;6.80;99.90
61145;DHT22;47026;51.208;3.288;2022-12-07T16:40:59;6.80;99.90
61145;DHT22;47026;51.208;3.288;2022-12-07T16:43:25;6.90;99.90
61145;DHT22;47026;51.208;3.288;2022-12-07T16:45:50;6.80;99.90
61145;DHT22;47026;51.208;3.288;2022-12-07T16:48:16;6.70;99.90
61145;DHT22;47026;51.208;3.288;2022-12-07T16:50:43;6.60;99.90
61145;DHT22;47026;51.208;3.288;2022-12-07T16:53:10;6.60;99.90
61145;DHT22;47026;51.208;3.288;2022-12-07T16:55:41;6.70;99.90
61145;DHT22;47026;51.208;3.288;2022-12-07T16:58:07;6.80;99.90
61145;DHT22;47026;51.208;3.288;2022-12-07T17:00:33;6.70;99.90
61145;DHT22;47026;51.208;3.288;2022-12-07T17:02:59;6.70;99.90
61145;DHT22;47026;51.208;3.288;2022-12-07T17:05:25;6.70;99.90
61145;DHT22;47026;51.208;3.288;2022-12-07T17:07:56;6.60;99.90
61145;DHT22;47026;51.208;3.288;2022-12-07T17:10:24;6.70;99.90
61145;DHT22;47026;51.208;3.288;2022-12-07T17:12:51;6.80;99.90
61145;DHT22;47026;51.208;3.288;2022-12-07T17:15:17;6.80;99.90
61145;DHT22;47026;51.208;3.288;2022-12-07T17:17:57;6.90;99.90
61145;DHT22;47026;51.208;3.288;2022-12-07T17:20:26;7.00;99.90
61145;DHT22;47026;51.208;3.288;2022-12-07T17:22:52;6.70;99.90
61145;DHT22;47026;51.208;3.288;2022-12-07T17:25:19;6.70;99.90
61145;DHT22;47026;51.208;3.288;2022-12-07T17:27:46;6.70;99.90
61145;DHT22;47026;51.208;3.288;2022-12-07T17:30:12;6.70;99.90
61145;DHT22;47026;51.208;3.288;2022-12-07T17:32:38;6.80;99.90
61145;DHT22;47026;51.208;3.288;2022-12-07T17:35:04;6.90;99.90
61145;DHT22;47026;51.208;3.288;2022-12-07T17:37:31;6.70;99.90
61145;DHT22;47026;51.208;3.288;2022-12-07T17:39:57;6.80;99.90
61145;DHT22;47026;51.208;3.288;2022-12-07T17:42:26;6.90;99.90
61145;DHT22;47026;51.208;3.288;2022-12-07T17:45:02;6.80;99.90
61145;DHT22;47026;51.208;3.288;2022-12-07T17:47:28;6.70;99.90